Time;durP1;ratioP1;P1;durP2;ratioP2;P2;SDS_P1;SDS_P2;PMS_P1;PMS_P2;Temp;Humidity;BMP_temperature;BMP_pressure;BME280_temperature;BME280_humidity;BME280_pressure;Samples;Min_cycle;Max_cycle;Signal;HPM_P1;HPM_P2
2022/08/11 00:01:10;;;;;;;6.60;3.40;;;;;;;16.57;65.07;102086.44;5095598;28;20082;-45
2022/08/11 00:03:42;;;;;;;8.98;3.40;;;;;;;16.59;64.52;102089.94;5096037;28;20024;-45
2022/08/11 00:06:08;;;;;;;8.05;3.65;;;;;;;16.61;64.04;102090.88;5096064;28;20050;-48
2022/08/11 00:08:34;;;;;;;13.48;3.85;;;;;;;16.60;64.76;102090.00;5095333;28;20438;-46
2022/08/11 00:11:03;;;;;;;7.93;3.72;;;;;;;16.59;64.80;102093.44;5095784;28;20016;-45
2022/08/11 00:13:41;;;;;;;8.10;3.97;;;;;;;16.54;64.37;102088.97;5095986;28;20562;-44
2022/08/11 00:16:14;;;;;;;5.90;3.90;;;;;;;16.46;65.45;102081.84;5095013;28;20442;-45
2022/08/11 00:18:45;;;;;;;6.70;3.75;;;;;;;16.40;66.46;102083.44;5095746;28;20031;-46
2022/08/11 00:21:12;;;;;;;5.90;3.83;;;;;;;16.36;66.62;102087.66;5096042;28;20111;-45
2022/08/11 00:23:44;;;;;;;6.78;4.00;;;;;;;16.36;67.00;102085.06;5094677;28;20047;-45
2022/08/11 00:26:10;;;;;;;6.57;3.80;;;;;;;16.37;66.72;102081.63;5096060;28;20035;-46
2022/08/11 00:28:36;;;;;;;5.28;3.90;;;;;;;16.37;66.65;102084.22;5095483;28;20020;-46
2022/08/11 00:31:05;;;;;;;7.85;3.50;;;;;;;16.32;66.69;102083.25;5094763;28;20516;-44
2022/08/11 00:33:38;;;;;;;7.40;4.03;;;;;;;16.37;66.45;102089.44;5095596;28;20498;-44
2022/08/11 00:36:04;;;;;;;5.93;3.80;;;;;;;16.34;66.60;102080.66;5094862;28;20032;-46
2022/08/11 00:38:33;;;;;;;6.53;4.35;;;;;;;16.35;66.64;102085.03;5095540;28;20028;-44
2022/08/11 00:41:10;;;;;;;7.03;3.58;;;;;;;16.43;66.35;102092.16;5095236;28;20036;-44
2022/08/11 00:43:50;;;;;;;5.28;3.10;;;;;;;16.56;64.57;102087.28;5094525;28;20501;-44
2022/08/11 00:46:24;;;;;;;6.47;3.50;;;;;;;16.55;64.96;102091.63;5095667;28;20078;-44
2022/08/11 00:49:33;;;;;;;7.05;3.75;;;;;;;16.51;64.78;102083.69;5095201;28;20032;-44
2022/08/11 00:52:16;;;;;;;6.38;3.40;;;;;;;16.49;64.34;102085.34;5014835;28;20199;-47
2022/08/11 00:55:06;;;;;;;6.00;3.30;;;;;;;16.51;64.11;102087.16;5095280;28;20032;-44
2022/08/11 00:57:50;;;;;;;7.68;3.83;;;;;;;16.44;64.75;102083.53;5094587;28;20035;-48
2022/08/11 01:00:22;;;;;;;5.75;3.72;;;;;;;16.37;65.69;102076.44;5094980;28;20113;-45
2022/08/11 01:03:17;;;;;;;5.47;3.38;;;;;;;16.40;65.00;102080.84;5095013;28;20027;-47
2022/08/11 01:05:55;;;;;;;7.28;3.70;;;;;;;16.38;64.65;102082.50;5094198;28;20069;-46
2022/08/11 01:08:30;;;;;;;9.18;3.42;;;;;;;16.21;65.76;102067.34;5095021;28;20110;-44
2022/08/11 01:11:20;;;;;;;7.88;3.30;;;;;;;16.22;65.88;102084.72;5093697;28;20035;-45
2022/08/11 01:14:17;;;;;;;8.70;4.53;;;;;;;16.12;66.06;102080.97;5094869;28;20024;-44
2022/08/11 01:17:11;;;;;;;7.97;4.28;;;;;;;16.05;65.72;102072.97;5094521;28;20479;-46
2022/08/11 01:20:07;;;;;;;9.27;3.97;;;;;;;15.94;66.75;102081.34;5093997;28;20091;-44
2022/08/11 01:22:58;;;;;;;8.32;4.25;;;;;;;15.94;67.00;102078.75;5094642;28;20441;-46
2022/08/11 01:25:40;;;;;;;6.30;3.55;;;;;;;15.96;65.81;102079.69;5093827;28;20501;-46
2022/08/11 01:28:43;;;;;;;6.03;3.78;;;;;;;15.99;66.22;102078.91;5094654;28;20028;-45
2022/08/11 01:31:36;;;;;;;6.63;4.00;;;;;;;15.98;66.38;102091.88;5094582;28;20038;-48
2022/08/11 01:34:31;;;;;;;7.63;4.07;;;;;;;15.94;66.69;102096.97;5093760;28;20020;-44
2022/08/11 01:37:33;;;;;;;6.95;4.13;;;;;;;15.98;66.56;102089.25;5094154;28;20024;-44
2022/08/11 01:40:11;;;;;;;9.30;4.30;;;;;;;16.00;66.88;102090.16;5093445;28;20174;-48
2022/08/11 01:46:25;;;;;;;8.90;4.10;;;;;;;15.97;66.41;102088.34;5094195;28;20109;-44
2022/08/11 01:49:16;;;;;;;7.57;4.28;;;;;;;15.89;67.39;102090.75;5094105;28;20030;-47
2022/08/11 01:52:18;;;;;;;7.47;4.30;;;;;;;15.92;66.19;102092.56;5094294;28;20055;-46
2022/08/11 01:55:06;;;;;;;6.30;4.00;;;;;;;15.88;66.90;102085.50;5093205;28;20027;-44
2022/08/11 01:57:49;;;;;;;8.05;4.28;;;;;;;15.77;68.00;102083.47;5076742;28;20066;-46
2022/08/11 02:00:19;;;;;;;6.38;4.22;;;;;;;15.80;68.10;102080.97;5093219;28;20024;-44
2022/08/11 02:03:11;;;;;;;7.40;4.13;;;;;;;15.78;67.12;102090.44;5093526;28;20101;-46
2022/08/11 02:06:53;;;;;;;6.47;4.55;;;;;;;15.70;67.55;102091.03;5093792;28;20059;-48
2022/08/11 02:09:11;;;;;;;8.55;5.05;;;;;;;15.73;67.56;102091.16;5092551;28;20032;-44
2022/08/11 02:11:37;;;;;;;7.32;4.25;;;;;;;15.67;68.28;102093.56;5093746;28;20028;-44
2022/08/11 02:14:12;;;;;;;8.65;4.53;;;;;;;15.63;68.73;102093.50;5093867;28;20039;-46
2022/08/11 02:17:14;;;;;;;8.77;4.28;;;;;;;15.77;67.73;102088.66;5093052;28;20447;-48
2022/08/11 02:25:52;;;;;;;9.52;4.90;;;;;;;15.66;69.27;102097.91;5093250;28;20094;-46
2022/08/11 02:28:37;;;;;;;8.32;4.63;;;;;;;15.57;68.78;102087.22;5093268;28;20027;-44
2022/08/11 02:34:36;;;;;;;11.55;5.57;;;;;;;15.43;68.84;102092.91;5093106;28;20089;-44
2022/08/11 02:37:23;;;;;;;8.68;4.63;;;;;;;15.29;70.37;102089.03;5061419;28;20036;-47
2022/08/11 02:39:52;;;;;;;8.38;5.50;;;;;;;15.33;70.66;102088.28;5093092;28;20070;-45
2022/08/11 02:42:48;;;;;;;9.18;5.22;;;;;;;15.27;70.42;102088.09;5093176;28;20028;-47
2022/08/11 02:45:46;;;;;;;11.68;5.28;;;;;;;15.25;69.97;102087.16;5092990;28;20064;-46
2022/08/11 02:52:04;;;;;;;6.32;5.03;;;;;;;15.20;69.42;102083.56;5092654;28;20089;-44
2022/08/11 02:54:43;;;;;;;9.25;4.93;;;;;;;15.15;70.57;102083.41;5085377;28;20032;-45
2022/08/11 02:57:19;;;;;;;8.98;5.03;;;;;;;15.18;70.29;102080.88;5092557;28;20082;-46
2022/08/11 03:00:06;;;;;;;6.70;4.72;;;;;;;15.20;69.69;102088.75;5092977;28;20032;-45
2022/08/11 03:02:39;;;;;;;8.18;5.15;;;;;;;15.16;70.78;102090.38;5093090;28;20027;-44
2022/08/11 03:05:07;;;;;;;8.38;5.30;;;;;;;15.09;71.07;102086.72;5092075;28;20028;-45
2022/08/11 03:07:38;;;;;;;9.20;5.55;;;;;;;15.11;71.12;102089.34;5093177;28;20032;-45
2022/08/11 03:10:22;;;;;;;10.55;5.20;;;;;;;15.05;70.66;102083.94;5092981;28;20024;-44
2022/08/11 03:16:53;;;;;;;9.65;5.45;;;;;;;14.93;71.65;102087.91;5077896;28;20081;-46
2022/08/11 03:19:52;;;;;;;10.88;5.60;;;;;;;14.84;72.55;102089.38;5092004;28;20494;-46
2022/08/11 03:22:25;;;;;;;9.68;5.68;;;;;;;14.51;75.87;102090.84;5092792;28;20405;-46
2022/08/11 03:25:09;;;;;;;9.75;6.07;;;;;;;14.51;74.48;102082.19;5091945;28;20048;-44
2022/08/11 03:27:43;;;;;;;11.05;5.47;;;;;;;14.54;73.66;102083.19;5092890;28;20027;-44
2022/08/11 03:30:33;;;;;;;9.65;5.63;;;;;;;14.58;73.10;102077.25;5092560;28;20020;-45
2022/08/11 03:36:12;;;;;;;8.40;5.80;;;;;;;14.49;73.49;102093.41;5097002;28;20089;-44
2022/08/11 03:39:04;;;;;;;9.77;5.88;;;;;;;14.54;72.42;102090.06;5095989;28;20483;-45
2022/08/11 03:41:43;;;;;;;8.32;5.32;;;;;;;14.43;73.59;102087.13;5092222;28;20079;-45
2022/08/11 03:44:42;;;;;;;9.70;5.65;;;;;;;14.47;72.87;102087.28;5096489;28;20441;-44
2022/08/11 03:47:32;;;;;;;7.82;5.65;;;;;;;14.43;73.31;102087.13;5095725;28;20036;-44
2022/08/11 03:50:06;;;;;;;9.43;5.97;;;;;;;14.36;74.73;102080.84;5096250;28;20457;-44
2022/08/11 03:52:46;;;;;;;9.55;5.72;;;;;;;14.34;74.26;102082.50;5096583;28;20031;-47
2022/08/11 03:55:29;;;;;;;8.25;5.65;;;;;;;14.36;74.05;102079.97;5096443;28;20479;-48
2022/08/11 03:58:25;;;;;;;7.18;5.57;;;;;;;14.29;74.14;102074.59;5096196;28;20032;-44
2022/08/11 04:01:11;;;;;;;9.88;6.15;;;;;;;14.25;75.13;102072.69;5095135;28;20376;-47
2022/08/11 04:03:48;;;;;;;9.90;6.40;;;;;;;14.15;75.34;102087.06;5096186;28;20020;-47
2022/08/11 04:06:40;;;;;;;13.48;6.93;;;;;;;14.11;76.08;102084.31;5096230;28;20064;-44
2022/08/11 04:09:45;;;;;;;8.25;6.20;;;;;;;14.17;74.48;102081.94;5095185;28;20024;-44
2022/08/11 04:12:28;;;;;;;9.75;6.55;;;;;;;14.17;75.07;102074.16;5096188;28;20107;-46
2022/08/11 04:18:46;;;;;;;9.38;6.63;;;;;;;14.15;74.56;102081.88;5096063;28;20568;-43
2022/08/11 04:21:25;;;;;;;8.65;6.18;;;;;;;14.02;75.88;102077.13;5059724;28;20044;-45
2022/08/11 04:24:24;;;;;;;12.82;7.18;;;;;;;14.00;75.84;102071.84;5095701;28;20055;-45
2022/08/11 04:27:18;;;;;;;9.23;6.38;;;;;;;13.83;76.93;102070.38;5095652;28;20038;-44
2022/08/11 04:30:03;;;;;;;12.50;7.20;;;;;;;13.81;77.51;102083.31;5094813;28;20032;-44
2022/08/11 04:33:05;;;;;;;9.10;6.80;;;;;;;13.79;76.81;102079.75;5095669;28;20081;-44
2022/08/11 04:37:31;;;;;;;8.65;7.10;;;;;;;13.77;77.02;102084.00;5094934;28;20032;-44
2022/08/11 04:39:26;;;;;;;10.13;7.25;;;;;;;13.83;77.39;102079.03;5054044;28;21000;-44
2022/08/11 04:45:22;;;;;;;9.38;7.25;;;;;;;13.97;76.74;102078.66;5095095;28;20051;-44
2022/08/11 05:07:26;;;;;;;10.85;7.60;;;;;;;14.25;76.37;102077.00;5092109;28;20116;-45
2022/08/11 05:10:15;;;;;;;11.30;8.18;;;;;;;14.33;75.87;102078.13;5094749;28;20020;-47
2022/08/11 05:12:48;;;;;;;10.02;7.30;;;;;;;14.39;76.76;102083.53;5094963;28;20020;-45
2022/08/11 05:35:31;;;;;;;11.18;7.43;;;;;;;15.18;76.63;102085.22;5094985;28;20059;-45
2022/08/11 05:57:28;;;;;;;12.45;9.00;;;;;;;16.10;74.28;102092.16;5094247;28;20055;-46
2022/08/11 06:00:04;;;;;;;11.38;8.95;;;;;;;16.26;73.01;102093.47;5093029;28;20118;-44
2022/08/11 06:02:30;;;;;;;14.73;9.13;;;;;;;16.34;72.51;102084.13;5094036;28;20382;-44
2022/08/11 06:05:00;;;;;;;12.10;8.30;;;;;;;16.50;72.69;102087.13;5093778;28;20043;-47
2022/08/11 06:07:28;;;;;;;11.57;8.90;;;;;;;16.65;71.95;102086.63;5093117;28;20024;-45
2022/08/11 06:09:55;;;;;;;16.85;9.25;;;;;;;16.70;71.81;102091.09;5093569;28;20024;-45
2022/08/11 06:12:28;;;;;;;16.58;9.02;;;;;;;16.82;72.17;102089.63;5093713;28;20085;-45
2022/08/11 06:14:54;;;;;;;13.80;9.38;;;;;;;16.90;71.67;102088.09;5092623;28;20035;-44
2022/08/11 06:17:26;;;;;;;11.20;8.90;;;;;;;17.01;70.67;102097.06;5093571;28;20462;-44
2022/08/11 06:19:59;;;;;;;15.98;8.93;;;;;;;17.17;69.61;102089.59;5093589;28;20035;-48
2022/08/11 06:22:25;;;;;;;14.25;8.90;;;;;;;17.25;69.33;102096.75;5092877;28;20027;-44
2022/08/11 06:24:56;;;;;;;13.30;8.68;;;;;;;17.41;68.52;102095.34;5093283;28;20031;-45
2022/08/11 06:27:25;;;;;;;14.27;8.98;;;;;;;17.48;69.66;102093.75;5093350;28;20031;-44
2022/08/11 06:29:52;;;;;;;14.80;9.00;;;;;;;17.56;70.25;102106.97;5093313;28;20020;-46
2022/08/11 06:32:19;;;;;;;13.60;9.18;;;;;;;17.62;69.64;102101.84;5093533;28;20055;-44
2022/08/11 06:35:02;;;;;;;15.90;9.40;;;;;;;17.72;69.10;102101.19;5092260;28;20515;-44
2022/08/11 06:37:56;;;;;;;14.13;9.00;;;;;;;17.85;69.00;102093.63;5093411;28;20878;-46
2022/08/11 06:40:35;;;;;;;15.45;8.68;;;;;;;17.99;69.10;102092.19;5093527;28;20045;-45
2022/08/11 06:43:22;;;;;;;16.30;10.10;;;;;;;18.09;68.63;102095.84;5092428;28;20020;-45
2022/08/11 06:45:56;;;;;;;14.73;9.52;;;;;;;18.23;69.17;102098.69;5092731;28;20059;-47
2022/08/11 06:48:23;;;;;;;17.35;9.35;;;;;;;18.32;69.90;102098.88;5093535;28;20058;-45
2022/08/11 06:51:13;;;;;;;13.13;9.07;;;;;;;18.41;69.50;102101.63;5092276;28;20023;-47
2022/08/11 06:53:46;;;;;;;11.70;8.63;;;;;;;18.55;69.92;102103.59;5093084;28;20055;-44
2022/08/11 07:02:04;;;;;;;12.88;8.45;;;;;;;18.94;67.42;102107.75;5093095;28;20062;-45
2022/08/11 07:04:42;;;;;;;10.80;8.32;;;;;;;18.99;67.34;102099.94;5092600;28;20039;-45
2022/08/11 07:15:55;;;;;;;10.10;7.28;;;;;;;19.71;62.26;102110.50;5092894;28;20043;-44
2022/08/11 07:29:37;;;;;;;13.93;8.55;;;;;;;20.52;59.67;102099.13;5091976;28;20077;-44
2022/08/11 07:32:13;;;;;;;13.93;8.20;;;;;;;20.58;59.31;102101.81;5090650;28;20024;-44
2022/08/11 07:34:45;;;;;;;11.52;8.20;;;;;;;20.71;60.05;102100.19;5091932;28;20387;-44
2022/08/11 07:37:16;;;;;;;13.35;8.27;;;;;;;20.79;58.55;102102.84;5092773;28;20044;-46
2022/08/11 07:39:43;;;;;;;12.85;8.73;;;;;;;20.88;57.59;102105.53;5091955;28;20055;-45
2022/08/11 07:42:12;;;;;;;13.45;8.20;;;;;;;20.97;57.40;102102.97;5092676;28;20021;-44
2022/08/11 07:52:57;;;;;;;13.02;8.02;;;;;;;21.56;54.54;102105.91;5091533;28;20501;-50
2022/08/11 07:55:24;;;;;;;;;;;;;;;21.62;56.82;102108.56;5092821;28;20038;-45
2022/08/11 08:19:54;;;;;;;10.52;6.15;;;;;;;22.86;49.44;102111.34;5091994;28;20452;-45
2022/08/11 08:22:21;;;;;;;14.57;9.32;;;;;;;22.95;48.74;102110.47;5094165;28;20528;-44
2022/08/11 08:24:47;;;;;;;11.95;6.68;;;;;;;23.08;48.53;102100.81;5095754;28;20032;-46
2022/08/11 08:27:14;;;;;;;12.77;7.57;;;;;;;23.22;48.84;102106.94;5095021;28;20077;-48
2022/08/11 08:32:27;;;;;;;;;;;;;;;23.47;50.40;102101.56;5096559;28;20043;-44
2022/08/11 08:34:57;;;;;;;10.55;5.72;;;;;;;23.59;47.32;102116.41;5094600;28;19912;-49
2022/08/11 08:37:25;;;;;;;9.40;5.45;;;;;;;23.71;47.99;102104.97;5095677;28;20094;-45
2022/08/11 08:39:51;;;;;;;10.18;5.70;;;;;;;23.96;46.11;102101.34;5095307;28;20024;-47
2022/08/11 08:42:22;;;;;;;11.25;5.82;;;;;;;24.14;46.03;102104.72;5094707;28;20023;-45
2022/08/11 08:44:55;;;;;;;8.95;5.50;;;;;;;24.33;45.27;102105.47;5095323;28;20059;-45
2022/08/11 08:47:25;;;;;;;11.80;5.30;;;;;;;24.61;45.33;102103.47;5095546;28;20058;-46
2022/08/11 08:49:59;;;;;;;8.55;6.07;;;;;;;24.61;43.91;102103.47;5094395;28;20046;-47
2022/08/11 08:52:29;;;;;;;11.68;5.57;;;;;;;24.79;44.09;102105.09;5095307;28;20107;-44
2022/08/11 08:55:00;;;;;;;10.93;5.70;;;;;;;24.99;45.19;102099.59;5095062;28;20028;-48
2022/08/11 08:57:28;;;;;;;14.07;4.63;;;;;;;25.06;43.29;102102.19;5094419;28;20478;-45
2022/08/11 08:59:55;;;;;;;7.43;4.60;;;;;;;25.12;43.42;102097.69;5095088;28;20024;-46
2022/08/11 09:02:24;;;;;;;11.35;5.30;;;;;;;25.20;41.94;102104.66;5094472;28;20020;-48
2022/08/11 09:04:51;;;;;;;9.20;5.07;;;;;;;25.25;41.67;102103.72;5094709;28;20469;-45
2022/08/11 09:07:19;;;;;;;9.40;4.17;;;;;;;25.35;40.70;102103.63;5094973;28;20020;-44
2022/08/11 09:09:50;;;;;;;7.25;3.97;;;;;;;25.51;42.01;102104.31;5093819;28;20320;-46
2022/08/11 09:12:20;;;;;;;8.57;4.22;;;;;;;25.66;40.08;102108.53;5095045;28;20436;-45
2022/08/11 09:15:02;;;;;;;7.03;4.28;;;;;;;25.85;40.28;102104.75;5094568;28;20414;-45
2022/08/11 09:17:45;;;;;;;7.35;3.85;;;;;;;26.05;40.38;102096.53;5094081;28;20020;-47
2022/08/11 09:20:20;;;;;;;10.57;4.13;;;;;;;26.13;39.81;102105.22;5094722;28;20360;-49
2022/08/11 09:28:18;;;;;;;12.37;7.77;;;;;;;26.86;40.53;102103.16;5094928;28;20478;-49
2022/08/11 09:30:45;;;;;;;10.40;4.60;;;;;;;27.03;39.52;102090.47;5093263;28;20471;-49
2022/08/11 09:33:15;;;;;;;12.95;4.25;;;;;;;27.08;37.67;102090.38;5094309;28;20420;-47
2022/08/11 09:35:42;;;;;;;10.18;4.53;;;;;;;27.06;37.49;102087.75;5094462;28;20020;-48
2022/08/11 09:40:56;;;;;;;11.25;4.40;;;;;;;27.58;38.25;102080.53;5094327;28;20054;-47
2022/08/11 09:46:08;;;;;;;9.95;4.47;;;;;;;28.64;35.77;102084.16;5093669;28;20101;-47
2022/08/11 09:48:39;;;;;;;10.95;3.92;;;;;;;28.55;34.24;102077.31;5094347;28;20020;-47
2022/08/11 09:51:06;;;;;;;11.30;4.00;;;;;;;29.02;34.98;102084.03;5093988;28;20440;-44
2022/08/11 09:53:36;;;;;;;8.18;3.25;;;;;;;29.02;33.12;102078.72;5093782;28;20035;-47
2022/08/11 09:58:12;;;;;;;8.05;3.38;;;;;;;29.24;32.56;102078.97;5093906;28;20471;-49
2022/08/11 09:58:48;;;;;;;;;;;;;;;29.36;35.34;102077.78;5093298;28;20036;-48
2022/08/11 10:01:25;;;;;;;12.67;4.20;;;;;;;29.37;32.51;102075.09;5093936;28;19919;-48
2022/08/11 10:03:55;;;;;;;;;;;;;;;29.73;33.35;102079.28;5094184;28;20047;-48
2022/08/11 10:09:05;;;;;;;9.13;3.53;;;;;;;30.93;28.41;102071.72;5094165;28;20043;-46
2022/08/11 10:11:33;;;;;;;8.35;3.15;;;;;;;31.36;27.86;102069.25;5093904;28;20089;-48
2022/08/11 10:16:44;;;;;;;7.70;3.22;;;;;;;33.07;26.44;102069.22;5093726;28;20039;-47
2022/08/11 10:19:10;;;;;;;7.35;2.80;;;;;;;33.22;25.14;102064.97;5093840;28;20020;-45
2022/08/11 10:26:48;;;;;;;10.75;2.92;;;;;;;34.52;24.71;102066.63;5092601;28;20137;-45
2022/08/11 10:27:14;;;;;;;7.30;3.20;;;;;;;34.31;23.74;102068.59;5092943;28;20096;-48
2022/08/11 10:35:13;;;;;;;9.07;2.78;;;;;;;35.73;22.76;102058.22;5092958;28;20119;-51
2022/08/11 10:37:41;;;;;;;7.25;2.92;;;;;;;35.84;22.42;102062.97;5093362;28;20024;-49
2022/08/11 10:40:09;;;;;;;4.90;2.70;;;;;;;36.57;20.67;102058.69;5093300;28;20054;-50
2022/08/11 10:48:06;;;;;;;6.68;2.95;;;;;;;36.76;20.83;102050.34;5092565;28;20123;-50
2022/08/11 10:58:50;;;;;;;7.97;2.80;;;;;;;38.67;18.51;102049.38;5093161;28;20157;-51
2022/08/11 11:01:22;;;;;;;9.27;2.35;;;;;;;38.93;19.10;102046.66;5093078;28;20036;-51
2022/08/11 11:03:51;;;;;;;8.35;2.72;;;;;;;38.61;17.30;102045.28;5091915;28;20066;-51
2022/08/11 11:06:43;;;;;;;6.47;2.63;;;;;;;39.02;17.79;102041.47;5092743;28;20107;-51
2022/08/11 11:09:31;;;;;;;8.30;2.70;;;;;;;38.82;18.21;102034.81;5092322;28;20028;-50
2022/08/11 11:17:56;;;;;;;5.18;2.65;;;;;;;39.37;18.12;102028.22;5092383;28;20371;-49
2022/08/11 11:20:26;;;;;;;7.60;2.63;;;;;;;39.39;17.08;102026.25;5093015;28;20101;-51
2022/08/11 11:22:55;;;;;;;6.32;2.80;;;;;;;39.60;16.93;102019.25;5091738;28;20459;-51
2022/08/11 11:25:20;;;;;;;3.60;1.98;;;;;;;39.92;16.26;102023.16;5092673;28;20028;-51
2022/08/11 11:28:12;;;;;;;4.50;2.57;;;;;;;40.47;17.80;102029.66;5092371;28;20035;-51
2022/08/11 11:30:54;;;;;;;7.45;2.20;;;;;;;40.10;17.12;102013.66;5091933;28;20024;-51
2022/08/11 11:33:41;;;;;;;9.13;4.15;;;;;;;40.44;17.15;102018.22;5092562;28;20395;-51
2022/08/11 11:36:35;;;;;;;7.70;2.28;;;;;;;41.06;16.57;102010.59;5092416;28;20489;-50
2022/08/11 11:39:01;;;;;;;9.20;6.33;;;;;;;40.80;16.07;102005.44;5091879;28;20028;-51
2022/08/11 11:41:27;;;;;;;15.15;7.07;;;;;;;41.47;14.91;102006.28;5092612;28;20027;-50
2022/08/11 11:43:57;;;;;;;8.23;2.78;;;;;;;41.67;15.35;102012.72;5092205;28;20074;-51
2022/08/11 11:46:28;;;;;;;4.57;2.35;;;;;;;41.97;14.02;102015.66;5092712;28;20082;-50
2022/08/11 11:48:55;;;;;;;8.23;3.63;;;;;;;42.10;14.21;102008.16;5092426;28;20103;-51
2022/08/11 11:51:22;;;;;;;6.07;2.47;;;;;;;41.54;14.55;102007.50;5091740;28;20464;-51
2022/08/11 11:53:48;;;;;;;8.05;3.00;;;;;;;41.82;14.30;102010.53;5092283;28;20111;-51
2022/08/11 11:56:14;;;;;;;13.05;9.13;;;;;;;41.55;14.40;102006.50;5095326;28;20471;-51
2022/08/11 12:01:25;;;;;;;26.30;18.95;;;;;;;42.01;13.55;101992.72;5096762;28;19919;-52
2022/08/11 12:03:52;;;;;;;;;;;;;;;42.97;14.92;101990.53;5096529;28;20103;-51
2022/08/11 12:06:20;;;;;;;6.05;2.38;;;;;;;41.63;14.18;101982.34;5095459;28;20294;-51
2022/08/11 12:08:48;;;;;;;4.05;2.45;;;;;;;42.44;13.68;101983.53;5095903;28;20077;-51
2022/08/11 12:14:02;;;;;;;6.55;2.50;;;;;;;40.78;14.18;101973.16;5095206;28;20038;-52
2022/08/11 12:16:28;;;;;;;4.75;2.28;;;;;;;39.93;15.24;101973.59;5096132;28;20020;-51
2022/08/11 12:18:58;;;;;;;29.65;22.45;;;;;;;40.50;16.77;101974.50;5095780;28;20020;-52
2022/08/11 12:21:29;;;;;;;6.55;3.38;;;;;;;40.83;14.83;101970.06;5095067;28;20020;-51
2022/08/11 12:29:14;;;;;;;20.55;12.63;;;;;;;41.56;14.08;101967.63;5095806;28;20375;-52
2022/08/11 12:31:40;;;;;;;6.80;2.38;;;;;;;41.44;13.64;101969.53;5095629;28;20096;-52
2022/08/11 12:34:08;;;;;;;6.65;2.47;;;;;;;40.53;13.36;101954.53;5094775;28;20501;-51
2022/08/11 12:36:47;;;;;;;5.63;2.60;;;;;;;40.36;14.44;101950.47;5095814;28;20024;-52
2022/08/11 12:45:26;;;;;;;6.43;2.60;;;;;;;39.65;14.32;101941.56;5095673;28;20031;-51
2022/08/11 12:51:57;;;;;;;5.88;2.90;;;;;;;40.38;15.41;101933.16;5094513;28;20093;-52
2022/08/11 12:53:12;;;;;;;6.93;2.50;;;;;;;40.97;13.82;101936.50;5095674;28;20115;-52
2022/08/11 12:58:26;;;;;;;19.10;10.45;;;;;;;41.67;14.96;101931.53;5095361;28;20120;-49
2022/08/11 13:06:23;;;;;;;8.25;3.20;;;;;;;41.28;13.30;101920.38;5094414;28;20043;-53
2022/08/11 13:08:50;;;;;;;8.13;2.67;;;;;;;41.34;13.87;101924.44;5093939;28;20032;-52
2022/08/11 13:14:01;;;;;;;4.63;2.80;;;;;;;41.77;14.03;101915.31;5095327;28;20054;-53
2022/08/11 13:16:31;;;;;;;6.82;2.42;;;;;;;42.12;14.09;101914.97;5093929;28;20467;-51
2022/08/11 13:18:59;;;;;;;13.30;7.93;;;;;;;42.03;13.25;101909.50;5094592;28;20107;-51
2022/08/11 13:21:26;;;;;;;7.82;3.00;;;;;;;41.99;12.77;101906.22;5094772;28;20024;-52
2022/08/11 13:23:53;;;;;;;8.02;3.50;;;;;;;41.85;13.67;101902.03;5094192;28;20049;-52
2022/08/11 13:26:21;;;;;;;5.55;2.30;;;;;;;41.92;12.75;101908.59;5094778;28;20035;-51
2022/08/11 13:28:46;;;;;;;6.38;2.28;;;;;;;41.94;12.72;101895.78;5094278;28;20025;-51
2022/08/11 13:31:13;;;;;;;13.90;7.97;;;;;;;41.87;13.09;101900.00;5093709;28;20032;-53
2022/08/11 13:33:46;;;;;;;9.73;2.30;;;;;;;42.15;13.04;101886.75;5094433;28;20109;-53
2022/08/11 13:36:14;;;;;;;8.55;4.35;;;;;;;41.69;12.50;101885.38;5094539;28;20034;-53
2022/08/11 13:38:42;;;;;;;4.30;1.85;;;;;;;41.79;12.53;101891.69;5093322;28;20375;-53
2022/08/11 13:41:55;;;;;;;6.40;2.22;;;;;;;41.62;12.73;101890.47;5094543;28;20023;-52
2022/08/11 13:43:55;;;;;;;47.20;31.95;;;;;;;41.66;13.15;101885.66;5082308;28;22806;-53
2022/08/11 13:46:23;;;;;;;7.40;2.40;;;;;;;40.91;12.69;101880.25;5094323;28;20032;-52
2022/08/11 13:48:50;;;;;;;9.63;3.50;;;;;;;40.95;12.65;101879.84;5094016;28;20024;-53
2022/08/11 13:51:34;;;;;;;5.32;2.30;;;;;;;41.52;13.13;101876.88;5093444;28;20182;-52
2022/08/11 13:54:23;;;;;;;4.97;2.55;;;;;;;41.35;13.02;101882.88;5094048;28;20098;-53
2022/08/11 13:56:52;;;;;;;5.00;2.35;;;;;;;40.89;12.96;101877.63;5093893;28;20035;-53
2022/08/11 13:59:21;;;;;;;5.70;3.15;;;;;;;41.01;12.64;101872.22;5093170;28;20429;-52
2022/08/11 14:01:51;;;;;;;93.07;65.22;;;;;;;41.14;12.17;101865.66;5093604;28;20367;-53
2022/08/11 14:04:26;;;;;;;7.03;2.70;;;;;;;40.64;13.28;101863.50;5094048;28;20024;-53
2022/08/11 14:06:53;;;;;;;26.10;16.35;;;;;;;40.75;14.31;101859.91;5093039;28;20028;-53
2022/08/11 14:09:25;;;;;;;5.43;2.25;;;;;;;40.93;12.59;101864.72;5093807;28;20490;-52
2022/08/11 14:14:42;;;;;;;5.28;2.25;;;;;;;41.00;12.71;101852.44;5093881;28;20379;-52
2022/08/11 14:17:09;;;;;;;9.85;3.95;;;;;;;41.02;12.83;101858.56;5093869;28;20031;-52
2022/08/11 14:19:38;;;;;;;4.53;2.20;;;;;;;41.01;12.87;101853.28;5092948;28;20113;-52
2022/08/11 14:22:08;;;;;;;7.45;2.78;;;;;;;41.10;13.60;101856.09;5093411;28;20028;-53
2022/08/11 14:24:37;;;;;;;19.92;11.75;;;;;;;40.92;13.52;101850.38;5093570;28;20032;-53
2022/08/11 14:27:05;;;;;;;35.88;22.10;;;;;;;40.23;13.98;101851.53;5092749;28;20027;-52
2022/08/11 14:29:33;;;;;;;8.38;3.53;;;;;;;39.88;14.42;101841.72;5093440;28;20541;-51
2022/08/11 14:32:01;;;;;;;6.18;3.28;;;;;;;39.61;15.01;101840.19;5093183;28;20028;-52
2022/08/11 14:34:29;;;;;;;6.30;2.30;;;;;;;38.91;15.14;101839.25;5092584;28;20390;-52
2022/08/11 14:37:00;;;;;;;10.45;3.20;;;;;;;38.14;15.38;101842.19;5092977;28;20099;-53
2022/08/11 14:39:30;;;;;;;17.17;8.10;;;;;;;37.13;17.47;101848.28;5093606;28;20052;-52
2022/08/11 14:47:37;;;;;;;6.55;2.22;;;;;;;35.12;17.28;101840.19;5092519;28;20043;-52
2022/08/11 14:50:06;;;;;;;53.80;21.80;;;;;;;34.50;18.99;101833.00;5093162;28;20043;-51
2022/08/11 14:52:36;;;;;;;79.88;44.15;;;;;;;34.02;18.89;101827.56;5093246;28;20039;-49
2022/08/11 14:57:47;;;;;;;79.80;41.38;;;;;;;33.17;21.02;101829.28;5093026;28;20121;-49
2022/08/11 15:00:14;;;;;;;6.72;3.95;;;;;;;32.89;20.06;101816.44;5093195;28;20028;-49
2022/08/11 15:05:25;;;;;;;6.60;2.05;;;;;;;32.44;20.10;101818.56;5093353;28;20130;-50
2022/08/11 15:07:53;;;;;;;5.88;2.45;;;;;;;32.27;20.08;101816.69;5092707;28;20068;-48
2022/08/11 15:10:19;;;;;;;6.85;3.03;;;;;;;32.13;21.25;101810.16;5092673;28;20016;-50
2022/08/11 15:12:45;;;;;;;10.68;4.50;;;;;;;32.03;21.70;101806.19;5092766;28;20100;-51
2022/08/11 15:17:59;;;;;;;3.92;2.67;;;;;;;31.81;21.57;101807.16;5092939;28;20062;-48
2022/08/11 15:37:25;;;;;;;8.10;2.33;;;;;;;31.56;21.35;101793.19;5092412;28;20062;-49
2022/08/11 15:37:28;;;;;;;4.82;2.42;;;;;;;31.26;21.89;101782.91;5096581;28;20046;-50
2022/08/11 15:46:05;;;;;;;7.93;2.78;;;;;;;31.10;23.63;101775.56;5033904;28;20048;-48
2022/08/11 15:48:40;;;;;;;5.78;1.92;;;;;;;31.10;23.20;101769.41;5034301;28;20048;-48
2022/08/11 15:51:21;;;;;;;8.52;2.50;;;;;;;31.09;22.35;101773.88;5057629;28;20117;-49
2022/08/11 15:53:53;;;;;;;6.40;2.30;;;;;;;31.04;23.63;101765.19;5076050;28;20102;-50
2022/08/11 15:56:22;;;;;;;9.38;2.60;;;;;;;31.01;22.45;101767.94;5076373;28;20082;-49
2022/08/11 16:04:23;;;;;;;;;;;;;;;31.09;22.96;101765.00;5075981;28;20437;-50
2022/08/11 16:07:00;;;;;;;4.63;2.30;;;;;;;30.81;22.70;101760.81;5075540;28;20275;-48
2022/08/11 16:09:34;;;;;;;9.00;2.67;;;;;;;30.74;23.49;101752.19;5075988;28;20032;-51
2022/08/11 16:12:03;;;;;;;6.53;2.42;;;;;;;30.70;22.68;101755.91;5074839;28;20060;-48
2022/08/11 16:17:20;;;;;;;6.93;2.65;;;;;;;30.61;23.06;101748.31;5076261;28;20528;-47
2022/08/11 16:19:48;;;;;;;7.15;2.40;;;;;;;30.59;23.67;101747.50;5074884;28;20024;-49
2022/08/11 16:22:18;;;;;;;6.45;2.30;;;;;;;30.50;23.31;101743.44;5075810;28;20029;-49
2022/08/11 16:24:46;;;;;;;8.20;2.40;;;;;;;30.43;23.47;101748.09;5075508;28;20111;-47
2022/08/11 16:27:12;;;;;;;;;;;;;;;30.56;23.14;101742.31;5075086;28;20031;-48
2022/08/11 16:29:42;;;;;;;13.27;3.92;;;;;;;30.32;24.78;101740.53;5075695;28;19913;-49